createdAt,value
2018-06-27T00:00:10.096Z,99.90
2018-06-27T00:02:38.523Z,99.90
2018-06-27T00:05:06.988Z,99.90
2018-06-27T00:07:35.393Z,99.90
2018-06-27T00:10:03.913Z,99.90
2018-06-27T00:12:32.371Z,99.90
2018-06-27T00:15:00.799Z,99.90
2018-06-27T00:17:29.256Z,99.90
2018-06-27T00:19:57.688Z,99.90
2018-06-27T00:22:26.072Z,99.90
2018-06-27T00:24:54.584Z,99.90
2018-06-27T00:27:23.052Z,99.90
2018-06-27T00:29:51.472Z,99.90
2018-06-27T00:32:19.868Z,99.90
2018-06-27T00:34:48.312Z,99.90
2018-06-27T00:37:16.701Z,99.90
2018-06-27T00:39:45.085Z,99.90
2018-06-27T00:42:13.520Z,99.90
2018-06-27T00:44:41.949Z,99.90
2018-06-27T00:47:10.429Z,99.90
2018-06-27T00:49:39.193Z,99.90
2018-06-27T00:52:07.675Z,99.90
2018-06-27T00:54:36.100Z,99.90
2018-06-27T00:57:04.564Z,99.90
2018-06-27T00:59:32.984Z,99.90
2018-06-27T01:02:01.397Z,99.90
2018-06-27T01:04:29.845Z,99.90
2018-06-27T01:06:58.344Z,99.90
2018-06-27T01:09:26.789Z,99.90
2018-06-27T01:11:55.241Z,99.90
2018-06-27T01:14:23.632Z,99.90
2018-06-27T01:16:52.028Z,99.90
2018-06-27T01:19:20.459Z,99.90
2018-06-27T01:21:49.168Z,99.90
2018-06-27T01:24:17.846Z,99.90
2018-06-27T01:26:46.361Z,99.90
2018-06-27T01:29:14.797Z,99.90
2018-06-27T01:31:43.231Z,99.90
2018-06-27T01:34:11.692Z,99.90
2018-06-27T01:36:40.168Z,99.90
2018-06-27T01:39:09.845Z,99.90
2018-06-27T01:41:38.268Z,99.90
2018-06-27T01:44:06.912Z,99.90
2018-06-27T01:46:36.105Z,99.90
2018-06-27T01:49:04.712Z,99.90
2018-06-27T01:51:33.100Z,99.90
2018-06-27T01:54:01.708Z,99.90
2018-06-27T01:56:30.121Z,99.90
2018-06-27T01:58:58.532Z,99.90
2018-06-27T02:01:26.955Z,99.90
2018-06-27T02:03:55.464Z,99.90
2018-06-27T02:06:23.905Z,99.90
2018-06-27T02:11:20.429Z,99.90
2018-06-27T02:13:48.912Z,99.90
2018-06-27T02:16:17.284Z,99.90
2018-06-27T02:18:45.718Z,99.90
2018-06-27T02:21:14.135Z,99.90
2018-06-27T02:23:42.569Z,99.90
2018-06-27T02:26:11.069Z,99.90
2018-06-27T02:28:39.552Z,99.90
2018-06-27T02:31:08.262Z,99.90
2018-06-27T02:33:36.650Z,99.90
2018-06-27T02:36:05.199Z,99.90
2018-06-27T02:38:33.608Z,99.90
2018-06-27T02:41:02.021Z,99.90
2018-06-27T02:45:58.537Z,99.90
2018-06-27T02:48:26.942Z,99.90
2018-06-27T02:50:55.380Z,99.90
2018-06-27T02:53:23.802Z,99.90
2018-06-27T02:55:52.271Z,99.90
2018-06-27T02:58:20.684Z,99.90
2018-06-27T03:00:51.702Z,99.90
2018-06-27T03:03:20.085Z,99.90
2018-06-27T03:05:48.573Z,99.90
2018-06-27T03:08:16.966Z,99.90
2018-06-27T03:10:45.373Z,99.90
2018-06-27T03:13:13.768Z,99.90
2018-06-27T03:15:42.236Z,99.90
2018-06-27T03:18:10.645Z,99.90
2018-06-27T03:20:39.040Z,99.90
2018-06-27T03:23:07.488Z,99.90
2018-06-27T03:25:35.900Z,99.90
2018-06-27T03:28:04.639Z,99.90
2018-06-27T03:30:33.021Z,99.90
2018-06-27T03:33:01.432Z,99.90
2018-06-27T03:35:29.873Z,99.90
2018-06-27T03:37:58.293Z,99.90
2018-06-27T03:40:26.752Z,99.90
2018-06-27T03:42:55.553Z,99.90
2018-06-27T03:45:24.056Z,99.90
2018-06-27T03:47:52.480Z,99.90
2018-06-27T03:50:20.896Z,99.90
2018-06-27T03:52:49.406Z,99.90
2018-06-27T03:55:17.803Z,99.90
2018-06-27T03:57:46.549Z,99.90
2018-06-27T04:00:14.981Z,99.90
2018-06-27T04:02:43.585Z,99.90
2018-06-27T04:05:12.035Z,99.90
2018-06-27T04:07:40.768Z,99.90
2018-06-27T04:10:10.253Z,99.90
2018-06-27T04:12:38.760Z,99.90
2018-06-27T04:15:07.457Z,99.90
2018-06-27T04:17:35.865Z,99.90
2018-06-27T04:20:04.341Z,99.90
2018-06-27T04:22:34.955Z,99.90
2018-06-27T04:25:03.465Z,99.90
2018-06-27T04:27:32.508Z,99.90
2018-06-27T04:30:02.648Z,99.90
2018-06-27T04:32:31.096Z,99.90
2018-06-27T04:35:00.553Z,99.90
2018-06-27T04:37:29.047Z,99.90
2018-06-27T04:39:57.509Z,99.90
2018-06-27T04:42:25.985Z,99.90
2018-06-27T04:44:54.384Z,99.90
2018-06-27T04:47:22.769Z,99.90
2018-06-27T04:49:51.617Z,99.90
2018-06-27T04:52:20.052Z,99.90
2018-06-27T04:54:48.694Z,99.90
2018-06-27T04:57:17.122Z,99.90
2018-06-27T04:59:45.509Z,99.90
2018-06-27T05:02:13.929Z,99.90
2018-06-27T05:04:42.564Z,99.90
2018-06-27T05:07:11.096Z,99.90
2018-06-27T05:09:39.773Z,99.90
2018-06-27T05:12:08.417Z,99.90
2018-06-27T05:14:36.873Z,99.90
2018-06-27T05:17:05.504Z,99.90
2018-06-27T05:19:38.824Z,99.90
2018-06-27T05:22:07.432Z,99.90
2018-06-27T05:24:35.893Z,99.90
2018-06-27T05:27:04.490Z,99.90
2018-06-27T05:29:32.876Z,99.90
2018-06-27T05:32:01.362Z,99.90
2018-06-27T05:34:30.123Z,99.90
2018-06-27T05:36:58.812Z,99.90
2018-06-27T05:39:27.903Z,99.90
2018-06-27T05:41:56.316Z,99.90
2018-06-27T05:44:24.845Z,99.90
2018-06-27T05:46:53.500Z,99.90
2018-06-27T05:49:21.928Z,99.90
2018-06-27T05:51:50.812Z,99.90
2018-06-27T05:54:19.281Z,99.90
2018-06-27T05:56:47.692Z,99.90
2018-06-27T05:59:16.148Z,99.90
2018-06-27T06:01:44.610Z,99.90
2018-06-27T06:04:13.031Z,99.90
2018-06-27T06:06:41.492Z,99.90
2018-06-27T06:09:11.323Z,99.90
2018-06-27T06:11:39.911Z,99.90
2018-06-27T06:14:08.809Z,99.90
2018-06-27T06:16:37.253Z,99.90
2018-06-27T06:19:06.060Z,99.90
2018-06-27T06:21:34.472Z,99.90
2018-06-27T06:24:02.920Z,99.90
2018-06-27T06:26:31.337Z,99.90
2018-06-27T06:28:59.881Z,99.90
2018-06-27T06:31:28.351Z,99.90
2018-06-27T06:33:56.769Z,99.90
2018-06-27T06:36:25.203Z,99.90
2018-06-27T06:38:54.125Z,99.90
2018-06-27T06:41:22.567Z,99.90
2018-06-27T06:43:50.974Z,99.90
2018-06-27T06:46:19.386Z,99.90
2018-06-27T06:48:47.820Z,99.90
2018-06-27T06:51:16.256Z,99.90
2018-06-27T06:53:44.682Z,99.90
2018-06-27T06:56:13.072Z,99.90
2018-06-27T06:58:41.527Z,99.90
2018-06-27T07:01:09.918Z,99.90
2018-06-27T07:03:38.362Z,99.90
2018-06-27T07:06:07.088Z,99.90
2018-06-27T07:08:35.500Z,99.90
2018-06-27T07:11:04.010Z,99.90
2018-06-27T07:13:32.320Z,99.90
2018-06-27T07:16:00.909Z,99.90
2018-06-27T07:18:30.064Z,99.90
2018-06-27T07:20:58.539Z,99.90
2018-06-27T07:23:27.429Z,99.90
2018-06-27T07:25:55.864Z,99.90
2018-06-27T07:28:24.380Z,99.90
2018-06-27T07:30:52.800Z,99.90
2018-06-27T07:33:21.201Z,99.90
2018-06-27T07:35:49.629Z,99.90
2018-06-27T07:38:18.045Z,99.90
2018-06-27T07:40:46.494Z,99.90
2018-06-27T07:43:14.877Z,99.90
2018-06-27T07:45:43.532Z,99.90
2018-06-27T07:48:11.964Z,99.90
2018-06-27T07:50:40.341Z,99.90
2018-06-27T07:53:09.213Z,99.90
2018-06-27T07:55:37.622Z,99.90
2018-06-27T07:58:06.164Z,99.90
2018-06-27T08:00:34.572Z,99.90
2018-06-27T08:03:03.039Z,99.90
2018-06-27T08:05:31.494Z,99.90
2018-06-27T08:07:59.896Z,99.90
2018-06-27T08:10:28.361Z,99.90
2018-06-27T08:12:56.783Z,99.90
2018-06-27T08:15:25.214Z,99.90
2018-06-27T08:17:53.735Z,99.90
2018-06-27T08:20:22.050Z,99.90
2018-06-27T08:22:50.501Z,99.90
2018-06-27T08:25:19.162Z,99.90
2018-06-27T08:27:47.914Z,99.90
2018-06-27T08:30:16.549Z,99.90
2018-06-27T08:32:45.017Z,99.90
2018-06-27T08:35:14.148Z,99.90
2018-06-27T08:37:42.589Z,99.90
2018-06-27T08:40:11.529Z,99.90
2018-06-27T08:42:40.849Z,99.90
2018-06-27T08:45:09.552Z,99.90
2018-06-27T08:47:37.940Z,99.90
2018-06-27T08:50:06.425Z,99.90
2018-06-27T08:52:34.894Z,99.90
2018-06-27T08:55:03.310Z,99.90
2018-06-27T08:57:31.704Z,99.90
2018-06-27T09:00:00.258Z,99.90
2018-06-27T09:02:28.676Z,99.90
2018-06-27T09:04:57.085Z,99.90
2018-06-27T09:07:25.496Z,99.90
2018-06-27T09:09:53.921Z,99.90
2018-06-27T09:12:22.328Z,99.90
2018-06-27T09:14:50.801Z,99.90
2018-06-27T09:17:19.391Z,99.90
2018-06-27T09:19:47.959Z,99.90
2018-06-27T09:22:16.420Z,99.90
2018-06-27T09:24:44.884Z,99.90
2018-06-27T09:27:13.305Z,99.90
2018-06-27T09:29:41.745Z,99.90
2018-06-27T09:32:10.245Z,99.90
2018-06-27T09:34:38.729Z,99.90
2018-06-27T09:37:07.504Z,99.90
2018-06-27T09:39:35.997Z,99.90
2018-06-27T09:42:04.456Z,99.90
2018-06-27T09:44:32.892Z,99.90
2018-06-27T09:47:01.290Z,99.90
2018-06-27T09:49:29.745Z,99.90
2018-06-27T09:51:58.370Z,99.90
2018-06-27T09:54:26.772Z,99.90
2018-06-27T09:56:55.389Z,99.90
2018-06-27T09:59:23.954Z,99.90
2018-06-27T10:01:52.540Z,99.90
2018-06-27T10:04:20.932Z,99.90
2018-06-27T10:06:49.357Z,99.90
2018-06-27T10:09:17.785Z,99.90
2018-06-27T10:11:46.180Z,99.90
2018-06-27T10:14:14.710Z,99.90
2018-06-27T10:16:43.285Z,99.90
2018-06-27T10:19:13.507Z,99.90
2018-06-27T10:21:41.979Z,99.90
2018-06-27T10:24:10.385Z,99.90
2018-06-27T10:26:38.916Z,99.90
2018-06-27T10:29:07.321Z,99.90
2018-06-27T10:31:35.761Z,99.90
2018-06-27T10:34:04.212Z,99.90
2018-06-27T10:36:32.696Z,99.90
2018-06-27T10:39:01.150Z,99.90
2018-06-27T10:41:30.257Z,99.90
2018-06-27T10:43:58.754Z,99.90
2018-06-27T10:46:27.275Z,99.90
2018-06-27T10:48:56.069Z,99.90
2018-06-27T10:51:24.653Z,99.90
2018-06-27T10:53:53.445Z,99.90
2018-06-27T10:56:22.068Z,99.90
2018-06-27T10:58:50.617Z,99.90
2018-06-27T11:01:19.240Z,99.90
2018-06-27T11:03:47.736Z,99.90
2018-06-27T11:06:16.304Z,99.90
2018-06-27T11:08:44.903Z,99.90
2018-06-27T11:11:13.423Z,99.90
2018-06-27T11:13:41.904Z,99.90
2018-06-27T11:16:10.358Z,99.90
2018-06-27T11:18:38.788Z,99.90
2018-06-27T11:21:07.606Z,99.90
2018-06-27T11:23:36.053Z,99.90
2018-06-27T11:26:04.800Z,99.90
2018-06-27T11:28:33.176Z,99.90
2018-06-27T11:31:01.629Z,99.90
2018-06-27T11:33:29.999Z,99.90
2018-06-27T11:35:58.460Z,99.90
2018-06-27T11:38:26.944Z,99.90
2018-06-27T11:40:55.770Z,99.90
2018-06-27T11:43:24.189Z,99.90
2018-06-27T11:45:52.652Z,99.90
2018-06-27T11:48:21.148Z,99.90
2018-06-27T11:50:49.576Z,99.90
2018-06-27T11:53:18.070Z,99.90
2018-06-27T11:58:14.784Z,99.90
2018-06-27T12:00:43.276Z,99.90
2018-06-27T12:03:11.808Z,99.90
2018-06-27T12:05:40.800Z,99.90
2018-06-27T12:08:09.209Z,99.30
2018-06-27T12:10:37.624Z,99.00
2018-06-27T12:13:06.053Z,98.10
2018-06-27T12:15:34.450Z,98.00
2018-06-27T12:18:02.906Z,97.30
2018-06-27T12:20:31.306Z,96.80
2018-06-27T12:22:59.873Z,96.30
2018-06-27T12:27:56.399Z,96.70
2018-06-27T12:30:25.458Z,94.50
2018-06-27T12:32:53.859Z,94.30
2018-06-27T12:35:22.852Z,93.00
2018-06-27T12:37:52.034Z,92.30
2018-06-27T12:40:20.457Z,92.90
2018-06-27T12:45:17.461Z,92.30
2018-06-27T12:47:45.888Z,93.00
2018-06-27T12:50:14.331Z,92.40
2018-06-27T12:52:42.753Z,91.20
2018-06-27T12:55:13.050Z,90.70
2018-06-27T12:57:41.570Z,91.70
2018-06-27T13:00:10.841Z,91.00
2018-06-27T13:02:39.239Z,89.60
2018-06-27T13:05:08.977Z,90.10
2018-06-27T13:07:37.382Z,90.00
2018-06-27T13:10:07.368Z,89.10
2018-06-27T13:12:36.279Z,89.00
2018-06-27T13:15:05.733Z,88.10
2018-06-27T13:17:34.217Z,88.10
2018-06-27T13:20:02.681Z,87.80
2018-06-27T13:22:31.548Z,87.70
2018-06-27T13:25:00.031Z,87.00
2018-06-27T13:27:28.501Z,85.60
2018-06-27T13:29:56.958Z,85.20
2018-06-27T13:32:25.816Z,82.70
2018-06-27T13:34:54.392Z,84.40
2018-06-27T13:37:22.776Z,86.30
2018-06-27T13:39:51.261Z,87.90
2018-06-27T13:42:19.760Z,87.50
2018-06-27T13:44:48.434Z,86.80
2018-06-27T13:47:16.914Z,86.40
2018-06-27T13:49:45.357Z,85.70
2018-06-27T13:52:13.772Z,86.20
2018-06-27T13:54:44.925Z,84.00
2018-06-27T13:57:13.349Z,84.60
2018-06-27T13:59:41.742Z,86.50
2018-06-27T14:02:10.212Z,86.40
2018-06-27T14:04:38.692Z,87.10
2018-06-27T14:07:07.192Z,88.40
2018-06-27T14:09:35.931Z,88.10
2018-06-27T14:12:04.453Z,85.60
2018-06-27T14:14:32.932Z,86.50
2018-06-27T14:17:01.408Z,87.40
2018-06-27T14:19:29.881Z,87.80
2018-06-27T14:21:58.565Z,87.50
2018-06-27T14:24:27.017Z,86.40
2018-06-27T14:26:55.634Z,85.70
2018-06-27T14:29:24.119Z,87.30
2018-06-27T14:31:52.662Z,87.00
2018-06-27T14:34:21.143Z,88.50
2018-06-27T14:36:49.656Z,88.80
2018-06-27T14:39:18.256Z,88.10
2018-06-27T14:41:46.839Z,87.10
2018-06-27T14:44:15.292Z,85.90
2018-06-27T14:46:43.845Z,86.20
2018-06-27T14:49:12.536Z,84.70
2018-06-27T14:51:41.349Z,84.70
2018-06-27T14:54:09.915Z,84.70
2018-06-27T14:56:38.418Z,85.00
2018-06-27T14:59:07.122Z,84.40
2018-06-27T15:01:35.593Z,84.20
2018-06-27T15:04:04.045Z,82.90
2018-06-27T15:06:32.551Z,83.70
2018-06-27T15:09:01.178Z,83.40
2018-06-27T15:11:29.887Z,83.00
2018-06-27T15:13:58.331Z,82.70
2018-06-27T15:16:26.778Z,80.70
2018-06-27T15:18:55.211Z,80.80
2018-06-27T15:21:23.624Z,80.60
2018-06-27T15:23:52.057Z,78.30
2018-06-27T15:26:20.640Z,78.80
2018-06-27T15:28:49.079Z,79.20
2018-06-27T15:31:17.747Z,78.70
2018-06-27T15:33:46.340Z,75.90
2018-06-27T15:36:14.901Z,75.80
2018-06-27T15:38:43.541Z,74.60
2018-06-27T15:41:12.053Z,73.80
2018-06-27T15:43:40.498Z,72.70
2018-06-27T15:46:09.199Z,72.20
2018-06-27T15:48:37.627Z,73.00
2018-06-27T15:51:06.094Z,70.90
2018-06-27T15:53:34.569Z,72.30
2018-06-27T15:56:03.006Z,72.20
2018-06-27T15:58:31.514Z,72.90
2018-06-27T16:01:00.044Z,71.60
2018-06-27T16:03:28.548Z,72.40
2018-06-27T16:05:56.982Z,72.10
2018-06-27T16:08:25.464Z,72.20
2018-06-27T16:10:54.026Z,72.50
2018-06-27T16:13:22.508Z,72.60
2018-06-27T16:15:51.046Z,72.40
2018-06-27T16:18:19.563Z,72.80
2018-06-27T16:20:48.115Z,73.60
2018-06-27T16:23:16.599Z,73.90
2018-06-27T16:25:45.091Z,73.90
2018-06-27T16:28:13.575Z,74.60
2018-06-27T16:30:42.072Z,75.10
2018-06-27T16:33:10.568Z,74.90
2018-06-27T16:35:39.012Z,75.30
2018-06-27T16:38:07.498Z,75.00
2018-06-27T16:40:35.953Z,75.00
2018-06-27T16:43:04.932Z,75.90
2018-06-27T16:45:33.385Z,76.00
2018-06-27T16:48:01.777Z,76.30
2018-06-27T16:50:30.358Z,77.00
2018-06-27T16:52:58.829Z,78.10
2018-06-27T16:55:27.385Z,78.70
2018-06-27T16:57:55.921Z,79.00
2018-06-27T17:00:24.436Z,79.80
2018-06-27T17:05:21.046Z,79.70
2018-06-27T17:07:49.452Z,79.80
2018-06-27T17:10:17.917Z,80.80
2018-06-27T17:12:46.350Z,80.10
2018-06-27T17:15:14.868Z,81.20
2018-06-27T17:17:43.323Z,80.30
2018-06-27T17:20:11.857Z,79.80
2018-06-27T17:22:40.376Z,80.30
2018-06-27T17:25:08.813Z,80.00
2018-06-27T17:27:37.537Z,79.70
2018-06-27T17:30:06.008Z,79.40
2018-06-27T17:32:34.519Z,79.60
2018-06-27T17:35:03.025Z,80.60
2018-06-27T17:37:31.729Z,81.20
2018-06-27T17:40:00.188Z,81.00
2018-06-27T17:42:28.725Z,79.90
2018-06-27T17:44:57.149Z,79.60
2018-06-27T17:47:25.652Z,79.70
2018-06-27T17:49:54.478Z,80.10
2018-06-27T17:52:22.893Z,79.30
2018-06-27T17:54:51.501Z,79.50
2018-06-27T17:57:19.949Z,79.90
2018-06-27T17:59:48.406Z,80.10
2018-06-27T18:02:17.117Z,79.40
2018-06-27T18:04:45.574Z,79.70
2018-06-27T18:07:14.108Z,80.80
2018-06-27T18:09:42.640Z,80.50
2018-06-27T18:12:11.250Z,81.00
2018-06-27T18:14:39.853Z,81.30
2018-06-27T18:17:08.524Z,81.20
2018-06-27T18:19:36.978Z,81.80
2018-06-27T18:22:05.587Z,82.10
2018-06-27T18:24:34.125Z,82.10
2018-06-27T18:27:02.605Z,82.40
2018-06-27T18:29:31.016Z,82.50
2018-06-27T18:31:59.540Z,83.20
2018-06-27T18:34:28.288Z,83.20
2018-06-27T18:36:56.759Z,83.30
2018-06-27T18:39:25.247Z,83.30
2018-06-27T18:41:53.737Z,83.70
2018-06-27T18:44:22.152Z,83.90
2018-06-27T18:46:50.614Z,84.60
2018-06-27T18:49:19.426Z,84.80
2018-06-27T18:51:48.757Z,84.50
2018-06-27T18:54:17.507Z,84.20
2018-06-27T18:56:46.053Z,84.20
2018-06-27T18:59:14.532Z,84.60
2018-06-27T19:01:43.087Z,84.90
2018-06-27T19:04:11.692Z,85.60
2018-06-27T19:06:40.184Z,86.30
2018-06-27T19:09:10.927Z,86.20
2018-06-27T19:11:39.873Z,86.60
2018-06-27T19:14:08.608Z,87.30
2018-06-27T19:16:37.081Z,87.80
2018-06-27T19:19:05.767Z,88.00
2018-06-27T19:21:34.208Z,88.60
2018-06-27T19:24:02.648Z,88.80
2018-06-27T19:26:31.098Z,89.40
2018-06-27T19:28:59.566Z,89.90
2018-06-27T19:31:28.009Z,90.00
2018-06-27T19:33:56.606Z,90.30
2018-06-27T19:36:25.083Z,90.40
2018-06-27T19:38:53.581Z,90.60
2018-06-27T19:41:23.075Z,91.00
2018-06-27T19:43:51.411Z,91.10
2018-06-27T19:46:21.632Z,91.40
2018-06-27T19:48:50.313Z,91.60
2018-06-27T19:51:18.838Z,91.70
2018-06-27T19:53:47.263Z,92.20
2018-06-27T19:56:16.097Z,92.10
2018-06-27T19:58:44.582Z,92.20
2018-06-27T20:01:13.063Z,92.50
2018-06-27T20:03:41.585Z,92.60
2018-06-27T20:06:10.035Z,92.80
2018-06-27T20:08:38.457Z,92.90
2018-06-27T20:11:07.068Z,93.10
2018-06-27T20:13:35.558Z,93.40
2018-06-27T20:16:04.233Z,93.50
2018-06-27T20:18:32.682Z,93.60
2018-06-27T20:21:01.192Z,93.80
2018-06-27T20:23:29.729Z,94.10
2018-06-27T20:25:58.202Z,94.40
2018-06-27T20:28:26.950Z,94.70
2018-06-27T20:30:56.421Z,94.60
2018-06-27T20:33:25.550Z,94.80
2018-06-27T20:35:53.988Z,95.10
2018-06-27T20:38:22.678Z,95.30
2018-06-27T20:40:51.045Z,95.30
2018-06-27T20:43:19.633Z,96.00
2018-06-27T20:45:48.288Z,96.00
2018-06-27T20:48:16.884Z,96.20
2018-06-27T20:50:45.321Z,96.50
2018-06-27T20:53:13.869Z,96.80
2018-06-27T20:55:42.332Z,97.20
2018-06-27T20:58:10.872Z,97.40
2018-06-27T21:00:39.410Z,97.40
2018-06-27T21:03:07.892Z,97.50
2018-06-27T21:05:36.329Z,97.70
2018-06-27T21:08:04.817Z,97.70
2018-06-27T21:10:33.334Z,97.90
2018-06-27T21:13:02.045Z,98.10
2018-06-27T21:15:31.439Z,98.20
2018-06-27T21:17:59.948Z,98.20
2018-06-27T21:20:28.411Z,98.60
2018-06-27T21:22:57.379Z,98.40
2018-06-27T21:25:25.791Z,98.40
2018-06-27T21:27:54.244Z,98.90
2018-06-27T21:30:22.814Z,98.70
2018-06-27T21:32:51.250Z,98.90
2018-06-27T21:35:19.812Z,99.70
2018-06-27T21:37:48.268Z,99.40
2018-06-27T21:40:16.700Z,99.60
2018-06-27T21:42:45.118Z,99.70
2018-06-27T21:45:13.668Z,99.70
2018-06-27T21:47:42.089Z,99.70
2018-06-27T21:50:10.992Z,99.70
2018-06-27T21:52:39.465Z,99.60
2018-06-27T21:55:07.972Z,99.70
2018-06-27T21:57:36.722Z,99.80
2018-06-27T22:00:08.011Z,99.80
2018-06-27T22:02:36.741Z,99.90
2018-06-27T22:05:05.201Z,99.90
2018-06-27T22:07:33.818Z,99.90
2018-06-27T22:10:02.237Z,99.90
2018-06-27T22:12:30.693Z,99.90
2018-06-27T22:14:59.105Z,99.90
2018-06-27T22:17:27.552Z,99.90
2018-06-27T22:19:56.119Z,99.90
2018-06-27T22:22:24.634Z,99.90
2018-06-27T22:24:53.086Z,99.90
2018-06-27T22:27:21.581Z,99.90
2018-06-27T22:29:50.025Z,99.90
2018-06-27T22:32:18.438Z,99.90
2018-06-27T22:34:46.875Z,99.90
2018-06-27T22:37:15.380Z,99.90
2018-06-27T22:39:45.707Z,99.90
2018-06-27T22:42:14.247Z,99.90
2018-06-27T22:44:42.669Z,99.90
2018-06-27T22:47:11.358Z,99.90
2018-06-27T22:49:39.770Z,99.90
2018-06-27T22:52:08.176Z,99.90
2018-06-27T22:54:36.583Z,99.90
2018-06-27T22:57:05.345Z,99.90
2018-06-27T22:59:33.795Z,99.90
2018-06-27T23:02:02.221Z,99.90
2018-06-27T23:04:30.656Z,99.90
2018-06-27T23:06:59.088Z,99.90
2018-06-27T23:09:27.501Z,99.90
2018-06-27T23:11:56.085Z,99.90
2018-06-27T23:14:24.513Z,99.90
2018-06-27T23:16:52.969Z,99.90
2018-06-27T23:19:21.743Z,99.90
2018-06-27T23:21:50.325Z,99.90
2018-06-27T23:24:18.741Z,99.90
2018-06-27T23:29:15.364Z,99.90
2018-06-27T23:31:43.924Z,99.90
2018-06-27T23:34:12.336Z,99.90
2018-06-27T23:36:41.849Z,99.90
2018-06-27T23:39:12.021Z,99.90
2018-06-27T23:41:41.041Z,99.90
2018-06-27T23:44:09.489Z,99.90
2018-06-27T23:46:38.194Z,99.90
2018-06-27T23:49:07.096Z,99.90
2018-06-27T23:51:35.608Z,99.90
2018-06-27T23:56:32.206Z,99.90
2018-06-27T23:59:00.629Z,99.90
